Belfast International Airport


Codes: EGAA/BFS
Name: Belfast International Airport
City: Belfast
Country: United Kingdom
Elevation: 268 ft.
Website:
Wikipedia:

Photos at Belfast International Airport


   Photos courtesy of SpottingLog. You can add your own sightings and photos by signing up for a free trial today.



G-EZDV, 17-Oct-2019
© Deleted Account

G-EZGY, 17-Oct-2019
© Deleted Account

G-DRTW, 17-Oct-2019
© Deleted Account

G-EZWP, 17-Oct-2019
© Deleted Account

G-UZHZ, 17-Oct-2019
© Deleted Account

SU-TCE, 17-Oct-2019
© Deleted Account

G-EZII, 17-Oct-2019
© Deleted Account

G-EZBU, 17-Oct-2019
© Deleted Account

EI-ENL, 17-Oct-2019
© Deleted Account

G-EZIY, 17-Oct-2019
© Deleted Account

G-EZFX, 17-Oct-2019
© Deleted Account

G-VROY, 22-Jun-2016
© Declan Keegan


Weather at Belfast International Airport


Time (UTC)DescriptionTempratureWindCloud coverageVisibilityPressureHumidity
15-Apr-2024 18:00Light Rain8°C25 mph, NW69%10000m1006hPa83%
15-Apr-2024 21:00Broken Clouds8°C22 mph, NW77%10000m1010hPa79%
16-Apr-2024 00:00Broken Clouds7°C18 mph, NW75%10000m1014hPa84%
16-Apr-2024 03:00Scattered Clouds5°C13 mph, NW41%10000m1016hPa78%
16-Apr-2024 06:00Scattered Clouds5°C11 mph, NW27%10000m1017hPa81%
16-Apr-2024 09:00Few Clouds8°C13 mph, NW17%10000m1019hPa63%
16-Apr-2024 12:00Scattered Clouds10°C13 mph, NW35%10000m1019hPa57%
16-Apr-2024 15:00Few Clouds10°C13 mph, NW24%10000m1019hPa62%
16-Apr-2024 18:00Light Rain7°C16 mph, NW50%10000m1019hPa81%
16-Apr-2024 21:00Broken Clouds5°C13 mph, NW73%10000m1021hPa76%
17-Apr-2024 00:00Light Rain4°C11 mph, NW81%10000m1020hPa75%
17-Apr-2024 03:00Overcast Clouds2°C7 mph, NW85%10000m1020hPa86%
17-Apr-2024 06:00Broken Clouds2°C4 mph, W73%10000m1020hPa90%
17-Apr-2024 09:00Overcast Clouds8°C11 mph, NW97%10000m1020hPa68%
17-Apr-2024 12:00Overcast Clouds8°C9 mph, W98%10000m1019hPa78%
17-Apr-2024 15:00Light Rain7°C7 mph, SW99%10000m1018hPa90%
17-Apr-2024 18:00Light Rain7°C2 mph, W99%10000m1019hPa95%
17-Apr-2024 21:00Broken Clouds5°C2 mph, NW73%10000m1020hPa96%
18-Apr-2024 00:00Overcast Clouds6°C2 mph, NW85%10000m1021hPa97%
18-Apr-2024 03:00Overcast Clouds6°C4 mph, NW100%10000m1021hPa96%
18-Apr-2024 06:00Light Rain6°C4 mph, NW100%10000m1022hPa94%
18-Apr-2024 09:00Light Rain9°C7 mph, NW100%10000m1023hPa87%
18-Apr-2024 12:00Light Rain11°C9 mph, NW88%10000m1023hPa67%
18-Apr-2024 15:00Overcast Clouds12°C11 mph, NW99%10000m1023hPa67%
18-Apr-2024 18:00Overcast Clouds10°C11 mph, W100%10000m1022hPa83%
18-Apr-2024 21:00Light Rain9°C13 mph, W100%10000m1023hPa81%
19-Apr-2024 00:00Overcast Clouds9°C11 mph, W98%10000m1022hPa85%
19-Apr-2024 03:00Overcast Clouds9°C11 mph, NW100%10000m1022hPa92%
19-Apr-2024 06:00Light Rain9°C11 mph, NW100%10000m1022hPa89%
19-Apr-2024 09:00Overcast Clouds10°C11 mph, NW100%10000m1024hPa83%
19-Apr-2024 12:00Light Rain12°C13 mph, NW100%10000m1024hPa78%
19-Apr-2024 15:00Light Rain12°C11 mph, NW100%10000m1024hPa77%
19-Apr-2024 18:00Overcast Clouds12°C9 mph, NW99%10000m1025hPa81%
19-Apr-2024 21:00Overcast Clouds10°C4 mph, W100%10000m1025hPa86%
20-Apr-2024 00:00Overcast Clouds9°C9 mph, NW92%10000m1025hPa88%
20-Apr-2024 03:00Overcast Clouds9°C7 mph, W100%10000m1025hPa88%
20-Apr-2024 06:00Overcast Clouds9°C7 mph, W100%10000m1025hPa95%
20-Apr-2024 09:00Overcast Clouds12°C9 mph, W99%10000m1026hPa79%
20-Apr-2024 12:00Overcast Clouds14°C9 mph, W99%10000m1026hPa73%
20-Apr-2024 15:00Overcast Clouds15°C9 mph, W100%10000m1026hPa71%